Flood From: 24-02-2018 06:00 Until: 25-02-2018 06:00 warning for: Flood Level: Yellow info button

Although rather usual in this region, locally or potentially dangerous phenomena are expected. (such as local winds, summer thunderstorms, rising streams or high waves) Be aware and pay attention to the latest weather updates, especially if you carry out activities exposed to weather or close to a stream or shoreline. 


Meteo18 Weather Cam more information Meteo18 Weather Cam


Thunder radar more information blitzortung!


Rain radar more information rain snow radar


Visit our other weather sites:

Template documentation
and downloads

And another site



Weather Underground History page Text

Daily Summary for February 6, 2016 Units:  Metric    English   Both
« Previous Day
Next Day »
Daily Weekly Monthly Yearly Custom
  High: Low: Average:
Temperature: -17.8 °C -16.6 °C -13.2 °C
Dew Point: -17.8 °C -16.8 °C -14.8 °C
Humidity: Humidity % 59 % 83 %
Wind Speed: 0 km/h 0 km/h 2.9 km/h
Wind Gust: 0 km/h - -
Wind:- - WSW
Pressure: 0 hPa 33900.6 hPa -
Precipitation: 7.62 mm    
Historical Graphs
 
 
Tabular Data for February 6, 2016
Time Temperature Dew Point Pressure Wind Wind Speed Wind Gust Humidity Rainfall Rate (Hourly)
-17.8 °C -17.8 °C 0 hPa Calm     Humidity % 0 mm
00:02 -15.6 °C -15.7 °C 34496.6 hPa Calm     98 % 0 mm
00:07 -15.5 °C -15.7 °C 34496.6 hPa Calm     98 % 0 mm
00:12 -15.5 °C -15.7 °C 34496.6 hPa Calm     98 % 0 mm
00:17 -15.6 °C -15.7 °C 34496.6 hPa Calm     98 % 0 mm
00:22 -15.6 °C -15.8 °C 34496.6 hPa Calm     98 % 0 mm
00:27 -15.5 °C -15.7 °C 34496.6 hPa Calm     98 % 0 mm
00:32 -15.3 °C -15.5 °C 34496.6 hPa Calm     98 % 0 mm
00:42 -15.2 °C -15.4 °C 34496.6 hPa Calm     98 % 0 mm
00:47 -15.2 °C -15.4 °C 34496.6 hPa Calm     98 % 0 mm
00:52 -15.3 °C -15.5 °C 34496.6 hPa Calm     98 % 0 mm
00:57 -15.4 °C -15.6 °C 34496.6 hPa Calm     98 % 0 mm
01:02 -15.4 °C -15.6 °C 34496.6 hPa Calm     98 % 0 mm
01:07 -15.5 °C -15.7 °C 34486.4 hPa Calm     98 % 0 mm
01:12 -15.6 °C -15.8 °C 34486.4 hPa Calm     98 % 0 mm
01:17 -15.7 °C -15.8 °C 34486.4 hPa Calm     98 % 0 mm
01:22 -15.7 °C -15.9 °C 34486.4 hPa Calm     98 % 0 mm
01:27 -15.7 °C -15.9 °C 34486.4 hPa Calm     98 % 0 mm
01:32 -15.8 °C -15.9 °C 34486.4 hPa Calm     98 % 0 mm
01:37 -15.7 °C -15.9 °C 34476.3 hPa Calm     98 % 7.62 mm
01:42 -15.7 °C -15.9 °C 34476.3 hPa Calm     98 % 7.62 mm
01:57 -15.9 °C -16.1 °C 34476.3 hPa Calm     98 % 7.62 mm
02:02 -16 °C -16.2 °C 34476.3 hPa Calm     98 % 7.62 mm
02:07 -16 °C -16.2 °C 34476.3 hPa Calm     98 % 7.62 mm
02:12 -16.1 °C -16.2 °C 34476.3 hPa Calm     98 % 7.62 mm
02:17 -16.1 °C -16.2 °C 34462.7 hPa Calm     98 % 7.62 mm
02:22 -16.2 °C -16.3 °C 34462.7 hPa Calm     98 % 7.62 mm
02:27 -16.1 °C -16.3 °C 34476.3 hPa Calm     98 % 7.62 mm
02:32 -16.1 °C -16.3 °C 34462.7 hPa Calm     98 % 7.62 mm
02:37 -16.2 °C -16.3 °C 34462.7 hPa Calm     98 % 0 mm
02:42 -16.1 °C -16.2 °C 34462.7 hPa Calm     98 % 0 mm
02:47 -16 °C -16.2 °C 34462.7 hPa Calm     98 % 0 mm
02:52 -16 °C -16.2 °C 34462.7 hPa Calm     98 % 0 mm
02:57 -15.9 °C -16.1 °C 34462.7 hPa Calm     98 % 0 mm
03:02 -16 °C -16.2 °C 34462.7 hPa Calm     98 % 0 mm
03:07 -15.9 °C -16.1 °C 34462.7 hPa Calm     98 % 0 mm
03:12 -15.9 °C -16.1 °C 34462.7 hPa Calm     98 % 0 mm
03:17 -15.9 °C -16.1 °C 34452.6 hPa Calm     98 % 0 mm
03:22 -15.9 °C -16.1 °C 34452.6 hPa Calm     98 % 0 mm
03:27 -15.9 °C -16.1 °C 34452.6 hPa Calm     98 % 0 mm
03:32 -15.9 °C -16.1 °C 34452.6 hPa Calm     98 % 0 mm
03:37 -15.9 °C -16.1 °C 34452.6 hPa Calm     98 % 0 mm
03:42 -16 °C -16.2 °C 34452.6 hPa Calm   2.6 km/h 98 % 0 mm
03:47 -16 °C -16.2 °C 34442.4 hPa Calm   2.6 km/h 98 % 0 mm
03:52 -16.1 °C -16.2 °C 34442.4 hPa Calm   2.6 km/h 98 % 0 mm
03:57 -16 °C -16.2 °C 34452.6 hPa Calm   2.6 km/h 98 % 0 mm
04:02 -16 °C -16.2 °C 34452.6 hPa Calm   2.6 km/h 98 % 0 mm
04:12 -15.9 °C -16.1 °C 34452.6 hPa Calm     98 % 0 mm
04:17 -15.9 °C -16.1 °C 34452.6 hPa Calm     98 % 0 mm
04:22 -15.9 °C -16.1 °C 34442.4 hPa Calm     98 % 0 mm
04:37 -15.8 °C -16 °C 34462.7 hPa Calm     98 % 0 mm
04:42 -15.8 °C -15.9 °C 34462.7 hPa Calm     98 % 0 mm
04:47 -15.7 °C -15.9 °C 34462.7 hPa Calm     98 % 0 mm
04:52 -15.6 °C -15.8 °C 34462.7 hPa Calm     98 % 0 mm
05:02 -15.3 °C -15.4 °C 34462.7 hPa SW 2.6 km/h 5.1 km/h 99 % 0 mm
05:12 -15.4 °C -15.6 °C 34462.7 hPa WSW 2.6 km/h 5.1 km/h 98 % 0 mm
05:17 -15.4 °C -15.6 °C 34452.6 hPa WSW 10.3 km/h 10.3 km/h 98 % 0 mm
05:22 -15.1 °C -15.3 °C 34452.6 hPa Calm   12.9 km/h 98 % 0 mm
05:32 -15.2 °C -15.4 °C 34452.6 hPa Calm   12.9 km/h 98 % 0 mm
05:37 -15.2 °C -15.4 °C 34452.6 hPa Calm   5.1 km/h 97 % 0 mm
05:42 -15.3 °C -15.5 °C 34442.4 hPa Calm   5.1 km/h 97 % 0 mm
05:47 -15.3 °C -15.6 °C 34452.6 hPa Calm   5.1 km/h 97 % 0 mm
05:52 -15.4 °C -15.6 °C 34452.6 hPa Calm   5.1 km/h 97 % 0 mm
05:57 -15.5 °C -15.7 °C 34452.6 hPa WSW 2.6 km/h 2.6 km/h 97 % 0 mm
06:02 -15.6 °C -15.8 °C 34442.4 hPa Calm   5.1 km/h 97 % 0 mm
06:12 -15.8 °C -16.2 °C 34452.6 hPa Calm   5.1 km/h 96 % 0 mm
06:17 -15.9 °C -16.1 °C 34452.6 hPa Calm   2.6 km/h 97 % 0 mm
06:22 -15.8 °C -16 °C 34452.6 hPa SW 2.6 km/h 2.6 km/h 97 % 0 mm
06:27 -15.7 °C -15.8 °C 34442.4 hPa Calm   7.7 km/h 98 % 0 mm
06:32 -15.8 °C -16 °C 34442.4 hPa Calm   7.7 km/h 97 % 0 mm
06:37 -16 °C -16.2 °C 34442.4 hPa Calm   7.7 km/h 97 % 0 mm
06:42 -16 °C -16.2 °C 34452.6 hPa SW 2.6 km/h 2.6 km/h 97 % 0 mm
06:47 -15.9 °C -16.1 °C 34452.6 hPa Calm   2.6 km/h 98 % 0 mm
06:52 -15.7 °C -15.8 °C 34452.6 hPa Calm   2.6 km/h 98 % 0 mm
07:02 -15.6 °C -15.7 °C 34452.6 hPa Calm   5.1 km/h 98 % 0 mm
07:07 -15.6 °C -15.8 °C 34442.4 hPa Calm   5.1 km/h 98 % 0 mm
07:12 -15.8 °C -16 °C 34442.4 hPa Calm   2.6 km/h 97 % 0 mm
07:17 -15.9 °C -16.1 °C 34442.4 hPa Calm   2.6 km/h 97 % 0 mm
07:22 -16.1 °C -16.4 °C 34442.4 hPa Calm   2.6 km/h 96 % 0 mm
07:32 -16.3 °C -16.7 °C 34442.4 hPa Calm   2.6 km/h 96 % 0 mm
07:42 -16.5 °C -16.7 °C 34442.4 hPa Calm   2.6 km/h 97 % 0 mm
07:47 -16.5 °C -16.7 °C 34442.4 hPa Calm     97 % 0 mm
07:52 -16.6 °C -16.8 °C 34442.4 hPa Calm     97 % 0 mm
07:57 -16.6 °C -16.8 °C 34442.4 hPa Calm     97 % 0 mm
08:02 -16.6 °C -16.8 °C 34442.4 hPa Calm     97 % 0 mm
08:07 -16.3 °C -16.4 °C 34442.4 hPa Calm     98 % 0 mm
08:12 -16.2 °C -16.3 °C 34442.4 hPa Calm     98 % 0 mm
08:17 -16.1 °C -16.2 °C 34442.4 hPa Calm     98 % 0 mm
08:22 -15.9 °C -16.1 °C 34442.4 hPa Calm     98 % 0 mm
08:27 -15.8 °C -15.9 °C 34442.4 hPa Calm   2.6 km/h 98 % 0 mm
08:32 -15.7 °C -15.9 °C 34442.4 hPa Calm   2.6 km/h 98 % 0 mm
08:37 -15.6 °C -15.8 °C 34442.4 hPa Calm   2.6 km/h 98 % 0 mm
08:42 -15.5 °C -15.7 °C 34442.4 hPa Calm   2.6 km/h 98 % 0 mm
08:47 -15.4 °C -15.6 °C 34442.4 hPa Calm   2.6 km/h 98 % 0 mm
08:52 -15.4 °C -15.6 °C 34442.4 hPa Calm   2.6 km/h 98 % 0 mm
08:57 -15.4 °C -15.6 °C 34442.4 hPa Calm   2.6 km/h 98 % 0 mm
09:02 -15.5 °C -15.7 °C 34442.4 hPa Calm   2.6 km/h 98 % 0 mm
09:07 -15.5 °C -15.7 °C 34442.4 hPa Calm     98 % 0 mm
09:12 -15.6 °C -15.8 °C 34442.4 hPa Calm     98 % 0 mm
09:17 -15.6 °C -15.8 °C 34428.8 hPa Calm     98 % 0 mm
09:22 -15.7 °C -15.9 °C 34428.8 hPa Calm     97 % 0 mm
09:27 -15.8 °C -16 °C 34428.8 hPa Calm     97 % 0 mm
09:32 -15.8 °C -16 °C 34428.8 hPa Calm     97 % 0 mm
09:37 -15.7 °C -15.9 °C 34418.7 hPa Calm     98 % 0 mm
09:42 -15.6 °C -15.8 °C 34418.7 hPa Calm     98 % 0 mm
09:47 -15.5 °C -15.7 °C 34418.7 hPa Calm     98 % 0 mm
09:52 -15.2 °C -15.4 °C 34418.7 hPa Calm   2.6 km/h 98 % 0 mm
09:57 -14.9 °C -15.1 °C 34405.1 hPa Calm   2.6 km/h 98 % 0 mm
10:02 -14.8 °C -14.9 °C 34405.1 hPa Calm   2.6 km/h 98 % 0 mm
10:12 -14.5 °C -14.7 °C 34405.1 hPa WSW 2.6 km/h 2.6 km/h 97 % 0 mm
10:17 -14.3 °C -14.6 °C 34405.1 hPa Calm   5.1 km/h 97 % 0 mm
10:22 -14.2 °C -14.5 °C 34395 hPa Calm   5.1 km/h 96 % 0 mm
10:32 -13.8 °C -14.2 °C 34395 hPa Calm   5.1 km/h 95 % 0 mm
10:37 -13.6 °C -14.1 °C 34395 hPa Calm   5.1 km/h 94 % 0 mm
10:42 -13.3 °C -14 °C 34395 hPa Calm   7.7 km/h 92 % 0 mm
10:47 -13.1 °C -13.9 °C 34384.8 hPa West 2.6 km/h 7.7 km/h 90 % 0 mm
10:52 -13 °C -13.9 °C 34384.8 hPa Calm   7.7 km/h 89 % 0 mm
11:02 -12.7 °C -13.8 °C 34384.8 hPa Calm   5.1 km/h 88 % 0 mm
11:07 -12.6 °C -13.6 °C 34384.8 hPa Calm   7.7 km/h 88 % 0 mm
11:12 -12.4 °C -13.6 °C 34371.3 hPa West 2.6 km/h 10.3 km/h 86 % 0 mm
11:17 -12.3 °C -13.7 °C 34371.3 hPa WSW 5.1 km/h 10.3 km/h 85 % 0 mm
11:22 -12.3 °C -13.6 °C 34371.3 hPa WNW 7.7 km/h 10.3 km/h 85 % 0 mm
11:27 -12.2 °C -13.5 °C 34371.3 hPa West 10.3 km/h 12.9 km/h 85 % 0 mm
11:32 -12.1 °C -13.7 °C 34361.1 hPa WSW 2.6 km/h 12.9 km/h 83 % 0 mm
11:37 -12 °C -13.6 °C 34361.1 hPa Calm   15.6 km/h 83 % 0 mm
11:42 -11.9 °C -13.5 °C 34361.1 hPa NNW 5.1 km/h 15.6 km/h 83 % 0 mm
11:47 -11.8 °C -13.4 °C 34361.1 hPa Calm   12.9 km/h 83 % 0 mm
11:52 -11.7 °C -13.4 °C 34347.6 hPa WNW 2.6 km/h 12.9 km/h 81 % 0 mm
11:57 -11.6 °C -13.2 °C 34347.6 hPa West 2.6 km/h 15.6 km/h 82 % 0 mm
12:02 -11.4 °C -13.1 °C 34347.6 hPa West 2.6 km/h 15.6 km/h 82 % 0 mm
12:07 -11.4 °C -13.3 °C 34337.4 hPa West 7.7 km/h 15.6 km/h 80 % 0 mm
12:12 -11.3 °C -13.1 °C 34337.4 hPa West 2.6 km/h 15.6 km/h 81 % 0 mm
12:17 -11.3 °C -13.4 °C 34327.3 hPa West 5.1 km/h 31.1 km/h 77 % 0 mm
12:27 -11.1 °C -13.2 °C 34327.3 hPa SSW 2.6 km/h 31.1 km/h 78 % 0 mm
12:32 -11 °C -13.1 °C 34313.7 hPa WSW 5.1 km/h 20.8 km/h 78 % 0 mm
12:42 -10.8 °C -13.5 °C 34313.7 hPa WSW 7.7 km/h 20.8 km/h 72 % 0 mm
12:47 -10.7 °C -13.1 °C 34303.6 hPa West 7.7 km/h 20.8 km/h 75 % 0 mm
13:02 -10.4 °C -13.1 °C 34293.4 hPa West 7.7 km/h 23.3 km/h 73 % 0 mm
13:07 -10.4 °C -12.9 °C 34293.4 hPa WSW 2.6 km/h 18.2 km/h 74 % 0 mm
13:12 -10.3 °C -12.8 °C 34279.9 hPa SW 2.6 km/h 18.2 km/h 74 % 0 mm
13:17 -10.3 °C -13.3 °C 34279.9 hPa West 5.1 km/h 23.3 km/h 70 % 0 mm
13:22 -10.2 °C -13.1 °C 34269.7 hPa SE 7.7 km/h 23.3 km/h 71 % 0 mm
13:27 -10.2 °C -13.2 °C 34256.2 hPa West 2.6 km/h 23.3 km/h 70 % 0 mm
13:32 -10.1 °C -12.8 °C 34256.2 hPa NNE 2.6 km/h 20.8 km/h 72 % 0 mm
13:37 -10.1 °C -12.7 °C 34256.2 hPa WSW 5.1 km/h 20.8 km/h 73 % 0 mm
13:42 -9.9 °C -12.9 °C 34246 hPa WSW 10.3 km/h 20.8 km/h 70 % 0 mm
13:47 -9.8 °C -13.1 °C 34246 hPa WSW 7.7 km/h 18.2 km/h 68 % 0 mm
13:52 -9.8 °C -13.2 °C 34235.8 hPa WNW 12.9 km/h 25.9 km/h 67 % 0 mm
13:57 -9.8 °C -13.2 °C 34235.8 hPa NW 2.6 km/h 25.9 km/h 67 % 0 mm
14:02 -9.7 °C -12.8 °C 34222.3 hPa WSW 10.3 km/h 25.9 km/h 69 % 0 mm
14:07 -9.6 °C -13.2 °C 34222.3 hPa WSW 10.3 km/h 25.9 km/h 65 % 0 mm
14:12 -9.6 °C -13 °C 34212.1 hPa WSW 7.7 km/h 25.9 km/h 67 % 0 mm
14:17 -9.6 °C -13.2 °C 34212.1 hPa SW 15.6 km/h 18.2 km/h 65 % 0 mm
14:22 -9.6 °C -12.7 °C 34212.1 hPa West 7.7 km/h 20.8 km/h 69 % 0 mm
14:27 -9.5 °C -13.3 °C 34198.6 hPa WSW 7.7 km/h 20.8 km/h 64 % 0 mm
14:32 -9.5 °C -13.7 °C 34198.6 hPa WNW 5.1 km/h 20.8 km/h 61 % 0 mm
14:37 -9.5 °C -13.1 °C 34198.6 hPa West 7.7 km/h 28.5 km/h 65 % 0 mm
14:42 -9.4 °C -12.9 °C 34188.4 hPa West 5.1 km/h 28.5 km/h 66 % 0 mm
14:47 -9.3 °C -12.8 °C 34178.3 hPa West 2.6 km/h 28.5 km/h 66 % 0 mm
14:52 -9.3 °C -12.9 °C 34178.3 hPa WSW 7.7 km/h 20.8 km/h 65 % 0 mm
14:57 -9.3 °C -12.8 °C 34178.3 hPa West 5.1 km/h 23.3 km/h 66 % 0 mm
15:02 -9.3 °C -13.2 °C 34178.3 hPa SE 5.1 km/h 23.3 km/h 63 % 0 mm
15:07 -9.3 °C -13.1 °C 34164.7 hPa SW 5.1 km/h 23.3 km/h 64 % 0 mm
15:12 -9.2 °C -12.7 °C 34164.7 hPa WNW 7.7 km/h 20.8 km/h 66 % 0 mm
15:17 -9.3 °C -13.2 °C 34154.6 hPa WSW 15.6 km/h 20.8 km/h 63 % 0 mm
15:22 -9.3 °C -13.6 °C 34154.6 hPa WSW 5.1 km/h 25.9 km/h 60 % 0 mm
15:27 -9.3 °C -13.2 °C 34144.4 hPa NNW 2.6 km/h 51.8 km/h 63 % 0 mm
15:37 -9.3 °C -13.2 °C 34144.4 hPa West 23.3 km/h 51.8 km/h 63 % 0 mm
15:42 -9.3 °C -12.9 °C 34144.4 hPa WNW 5.1 km/h 25.9 km/h 65 % 0 mm
15:47 -9.3 °C -13.7 °C 34130.9 hPa WSW 5.1 km/h 25.9 km/h 59 % 0 mm
15:57 -9.2 °C -13.2 °C 34120.7 hPa West 7.7 km/h 23.3 km/h 62 % 0 mm
16:02 -9.3 °C -13.3 °C 34107.2 hPa WSW 7.7 km/h 23.3 km/h 62 % 0 mm
16:07 -9.3 °C -13.6 °C 34107.2 hPa West 7.7 km/h 20.8 km/h 60 % 0 mm
16:12 -9.4 °C -13.6 °C 34107.2 hPa West 10.3 km/h 25.9 km/h 61 % 0 mm
16:17 -9.4 °C -13.6 °C 34107.2 hPa West 5.1 km/h 25.9 km/h 61 % 0 mm
16:22 -9.4 °C -13.6 °C 34097 hPa WNW 2.6 km/h 20.8 km/h 61 % 0 mm
16:27 -9.5 °C -13.4 °C 34097 hPa West 5.1 km/h 20.8 km/h 63 % 0 mm
16:32 -9.6 °C -13.6 °C 34086.9 hPa West 7.7 km/h 18.2 km/h 62 % 0 mm
16:37 -9.6 °C -13.9 °C 34073.3 hPa SW 10.3 km/h 18.2 km/h 60 % 0 mm
16:42 -9.7 °C -13.8 °C 34073.3 hPa West 7.7 km/h 18.2 km/h 61 % 0 mm
16:47 -9.8 °C -14.2 °C 34063.2 hPa West 7.7 km/h 18.2 km/h 59 % 0 mm
16:57 -9.9 °C -14.1 °C 34063.2 hPa SSW 2.6 km/h 20.8 km/h 61 % 0 mm
17:02 -10 °C -14.2 °C 34049.6 hPa West 7.7 km/h 28.5 km/h 60 % 0 mm
17:07 -10.1 °C -14.2 °C 34049.6 hPa SW 15.6 km/h 28.5 km/h 61 % 0 mm
17:17 -10.4 °C -14.2 °C 34039.5 hPa Calm   23.3 km/h 63 % 0 mm
17:22 -10.4 °C -14.3 °C 34039.5 hPa SW 7.7 km/h 23.3 km/h 63 % 0 mm
17:27 -10.6 °C -14.3 °C 34029.3 hPa WNW 2.6 km/h 15.6 km/h 64 % 0 mm
17:32 -10.7 °C -14.3 °C 34029.3 hPa West 5.1 km/h 23.3 km/h 64 % 0 mm
17:37 -10.7 °C -14.3 °C 34029.3 hPa WNW 7.7 km/h 23.3 km/h 65 % 0 mm
17:42 -10.8 °C -14.4 °C 34029.3 hPa West 2.6 km/h 23.3 km/h 65 % 0 mm
17:47 -10.9 °C -14.3 °C 34015.8 hPa West 15.6 km/h 23.3 km/h 66 % 0 mm
17:52 -10.9 °C -14.4 °C 34015.8 hPa West 7.7 km/h 23.3 km/h 66 % 0 mm
17:57 -11.1 °C -14.3 °C 34015.8 hPa West 7.7 km/h 18.2 km/h 67 % 0 mm
18:02 -11.2 °C -14.5 °C 34015.8 hPa SW 5.1 km/h 15.6 km/h 67 % 0 mm
18:07 -11.2 °C -14.4 °C 34015.8 hPa WSW 5.1 km/h 18.2 km/h 68 % 0 mm
18:12 -11.2 °C -14.5 °C 34015.8 hPa Calm   18.2 km/h 67 % 0 mm
18:17 -11.3 °C -14.4 °C 34005.6 hPa West 7.7 km/h 18.2 km/h 68 % 0 mm
18:22 -11.2 °C -14.6 °C 34005.6 hPa SW 7.7 km/h 25.9 km/h 66 % 0 mm
18:27 -11.2 °C -14.5 °C 34005.6 hPa WNW 2.6 km/h 25.9 km/h 67 % 0 mm
18:32 -11.3 °C -14.6 °C 34005.6 hPa West 7.7 km/h 25.9 km/h 67 % 0 mm
18:42 -11.4 °C -14.6 °C 34005.6 hPa West 7.7 km/h 23.3 km/h 68 % 0 mm
18:47 -11.4 °C -14.6 °C 34005.6 hPa West 2.6 km/h 23.3 km/h 68 % 0 mm
18:52 -11.6 °C -14.6 °C 34005.6 hPa WSW 5.1 km/h 15.6 km/h 69 % 0 mm
18:57 -11.6 °C -14.4 °C 34005.6 hPa SW 2.6 km/h 12.9 km/h 71 % 0 mm
19:02 -11.7 °C -14.6 °C 34005.6 hPa Calm   12.9 km/h 71 % 0 mm
19:07 -11.7 °C -14.5 °C 34005.6 hPa West 5.1 km/h 20.8 km/h 71 % 0 mm
19:12 -11.8 °C -14.5 °C 34005.6 hPa ESE 7.7 km/h 20.8 km/h 72 % 0 mm
19:17 -11.7 °C -14.7 °C 34005.6 hPa Calm   25.9 km/h 70 % 0 mm
19:22 -11.7 °C -14.6 °C 33992.1 hPa WSW 12.9 km/h 25.9 km/h 70 % 0 mm
19:27 -11.6 °C -14.6 °C 33992.1 hPa WSW 7.7 km/h 36.2 km/h 70 % 0 mm
19:32 -11.7 °C -14.7 °C 33992.1 hPa WNW 7.7 km/h 36.2 km/h 70 % 0 mm
19:37 -11.8 °C -14.7 °C 33992.1 hPa WSW 5.1 km/h 36.2 km/h 70 % 0 mm
19:42 -11.8 °C -14.6 °C 33992.1 hPa SW 5.1 km/h 20.8 km/h 71 % 0 mm
19:47 -11.9 °C -14.6 °C 33992.1 hPa WSW 5.1 km/h 23.3 km/h 72 % 0 mm
19:52 -12.1 °C -14.6 °C 33992.1 hPa West 5.1 km/h 23.3 km/h 73 % 0 mm
19:57 -12.1 °C -14.7 °C 33992.1 hPa WNW 7.7 km/h 23.3 km/h 72 % 0 mm
20:02 -12.1 °C -14.7 °C 33992.1 hPa WSW 5.1 km/h 20.8 km/h 72 % 0 mm
20:07 -12.1 °C -14.7 °C 33992.1 hPa Calm   20.8 km/h 73 % 0 mm
20:12 -12.1 °C -14.8 °C 33992.1 hPa West 10.3 km/h 18.2 km/h 72 % 0 mm
20:17 -12.1 °C -14.8 °C 33992.1 hPa SSW 12.9 km/h 20.8 km/h 72 % 0 mm
20:22 -12.1 °C -14.7 °C 33992.1 hPa WSW 5.1 km/h 20.8 km/h 73 % 0 mm
20:32 -12.3 °C -14.7 °C 33981.9 hPa NW 2.6 km/h 18.2 km/h 74 % 0 mm
20:37 -12.2 °C -14.7 °C 33981.9 hPa Calm   20.8 km/h 73 % 0 mm
20:42 -12.2 °C -14.7 °C 33981.9 hPa Calm   20.8 km/h 73 % 0 mm
20:47 -12.3 °C -14.7 °C 33981.9 hPa WSW 2.6 km/h 20.8 km/h 74 % 0 mm
20:52 -12.3 °C -14.7 °C 33981.9 hPa WSW 2.6 km/h 15.6 km/h 75 % 0 mm
20:57 -12.4 °C -14.7 °C 33971.7 hPa WSW 5.1 km/h 18.2 km/h 75 % 0 mm
21:02 -12.4 °C -14.6 °C 33981.9 hPa West 5.1 km/h 18.2 km/h 76 % 0 mm
21:07 -12.4 °C -14.7 °C 33971.7 hPa WSW 5.1 km/h 12.9 km/h 76 % 0 mm
21:17 -12.4 °C -14.6 °C 33971.7 hPa West 2.6 km/h 15.6 km/h 76 % 0 mm
21:22 -12.5 °C -14.6 °C 33971.7 hPa South 5.1 km/h 15.6 km/h 77 % 0 mm
21:32 -12.4 °C -14.6 °C 33958.2 hPa Calm   20.8 km/h 76 % 0 mm
21:37 -12.4 °C -14.6 °C 33958.2 hPa West 2.6 km/h 20.8 km/h 76 % 0 mm
21:42 -12.4 °C -14.7 °C 33958.2 hPa SW 5.1 km/h 18.2 km/h 76 % 0 mm
21:47 -12.5 °C -14.6 °C 33958.2 hPa West 2.6 km/h 15.6 km/h 77 % 0 mm
21:52 -12.6 °C -14.7 °C 33958.2 hPa SSW 2.6 km/h 15.6 km/h 77 % 0 mm
21:57 -12.6 °C -14.6 °C 33958.2 hPa West 5.1 km/h 12.9 km/h 78 % 0 mm
22:02 -12.6 °C -14.6 °C 33958.2 hPa West 5.1 km/h 20.8 km/h 78 % 0 mm
22:07 -12.6 °C -14.6 °C 33958.2 hPa WSW 5.1 km/h 20.8 km/h 78 % 0 mm
22:12 -12.7 °C -14.7 °C 33958.2 hPa Calm   20.8 km/h 78 % 0 mm
22:17 -12.7 °C -14.6 °C 33958.2 hPa SW 2.6 km/h 10.3 km/h 79 % 0 mm
22:22 -12.7 °C -14.7 °C 33958.2 hPa Calm   7.7 km/h 78 % 0 mm
22:27 -12.8 °C -14.7 °C 33958.2 hPa Calm   7.7 km/h 79 % 0 mm
22:32 -12.8 °C -14.7 °C 33958.2 hPa SW 2.6 km/h 7.7 km/h 79 % 0 mm
22:37 -12.8 °C -14.7 °C 33958.2 hPa Calm   5.1 km/h 79 % 0 mm
22:42 -12.8 °C -14.7 °C 33958.2 hPa WSW 2.6 km/h 10.3 km/h 79 % 0 mm
22:47 -12.7 °C -14.6 °C 33948 hPa Calm   10.3 km/h 79 % 0 mm
22:52 -12.7 °C -14.6 °C 33948 hPa WSW 7.7 km/h 10.3 km/h 79 % 0 mm
22:57 -12.7 °C -14.6 °C 33948 hPa SW 5.1 km/h 7.7 km/h 79 % 0 mm
23:02 -12.7 °C -14.6 °C 33948 hPa Calm   7.7 km/h 79 % 0 mm
23:07 -12.7 °C -14.6 °C 33937.9 hPa West 2.6 km/h 7.7 km/h 79 % 0 mm
23:17 -12.6 °C -14.6 °C 33937.9 hPa WSW 2.6 km/h 15.6 km/h 78 % 0 mm
23:22 -12.6 °C -14.6 °C 33937.9 hPa Calm   15.6 km/h 78 % 0 mm
23:32 -12.6 °C -14.6 °C 33924.3 hPa WSW 2.6 km/h 15.6 km/h 79 % 0 mm
23:37 -12.6 °C -14.5 °C 33924.3 hPa Calm   15.6 km/h 79 % 0 mm
23:42 -12.6 °C -14.5 °C 33914.2 hPa West 2.6 km/h 10.3 km/h 79 % 0 mm
23:47 -12.6 °C -14.5 °C 33914.2 hPa West 5.1 km/h 10.3 km/h 79 % 0 mm
23:52 -12.5 °C -14.4 °C 33900.6 hPa West 2.6 km/h 10.3 km/h 79 % 0 mm
23:57 -12.4 °C -14.4 °C 33900.6 hPa West 2.6 km/h 7.7 km/h 79 % 0 mm
Meteo18
Compliments of Weather Underground - 4 mb

Script developed by  Jim McMurry - jmcmurry@mwt.net Adapted for the template by  Wim van der Kuil - Leuven-Template.eu

You find our weather info also at:

European Weather Network

Weather Underground

Equipment we use:

Weather-station
Davis Vue

Weather-program
Meteobridge

Weather-server
Raspberry PI 2 B+

Provider
1 and 1

Davis Vue

Meteobridge

Raspberry PI 2 B+

1 and 1